Time;durP1;ratioP1;P1;durP2;ratioP2;P2;SDS_P1;SDS_P2;PMS_P1;PMS_P2;Temp;Humidity;BMP_temperature;BMP_pressure;BME280_temperature;BME280_humidity;BME280_pressure;Samples;Min_cycle;Max_cycle;Signal;HPM_P1;HPM_P2
2022/11/21 00:02:09;;;;;;;8.73;1.40;;;;;;;5.53;100.00;97962.88;5020394;28;20298;-63
2022/11/21 00:04:35;;;;;;;4.37;1.33;;;;;;;5.55;100.00;97962.75;5018972;28;20242;-63
2022/11/21 00:09:51;;;;;;;5.33;1.57;;;;;;;5.62;100.00;97956.06;4947335;28;20257;-64
2022/11/21 00:12:17;;;;;;;8.83;1.37;;;;;;;5.66;99.63;97949.66;4964377;28;20300;-63
2022/11/21 00:14:44;;;;;;;7.50;1.73;;;;;;;5.71;99.62;97929.34;4938864;28;20222;-63
2022/11/21 00:17:10;;;;;;;9.47;1.50;;;;;;;5.78;99.28;97958.13;4962585;28;20245;-63
2022/11/21 00:19:37;;;;;;;6.20;1.40;;;;;;;5.81;99.28;97963.03;4944777;28;20226;-63
2022/11/21 00:22:03;;;;;;;4.17;1.47;;;;;;;5.80;100.00;97960.56;4958520;28;20697;-63
2022/11/21 00:24:30;;;;;;;10.90;1.87;;;;;;;5.76;100.00;97965.22;4961646;28;20772;-63
2022/11/21 00:26:58;;;;;;;6.63;1.63;;;;;;;5.81;100.00;97973.41;4961307;28;20225;-63
2022/11/21 00:29:25;;;;;;;8.47;1.30;;;;;;;5.73;100.00;97952.53;4965218;28;20668;-63
2022/11/21 00:31:51;;;;;;;8.53;1.00;;;;;;;5.71;100.00;97955.25;4959935;28;20250;-63
2022/11/21 00:34:18;;;;;;;3.93;1.40;;;;;;;5.70;100.00;97961.38;4964808;28;20288;-63
2022/11/21 00:36:45;;;;;;;5.07;1.23;;;;;;;5.72;100.00;97943.94;4960871;28;20709;-63
2022/11/21 00:39:11;;;;;;;3.77;0.80;;;;;;;5.72;100.00;97946.53;4965019;28;20625;-63
2022/11/21 00:41:38;;;;;;;5.37;1.40;;;;;;;5.68;100.00;97950.34;4965561;28;20811;-64
2022/11/21 00:44:06;;;;;;;6.00;1.50;;;;;;;5.68;100.00;97957.31;4962185;28;20234;-63
2022/11/21 00:46:32;;;;;;;5.73;1.10;;;;;;;5.70;100.00;97943.25;4965211;28;20225;-63
2022/11/21 00:48:59;;;;;;;7.50;1.23;;;;;;;5.68;100.00;97962.50;4961082;28;20238;-63
2022/11/21 00:51:25;;;;;;;7.23;1.30;;;;;;;5.66;100.00;97959.22;4965669;28;20241;-64
2022/11/21 00:53:52;;;;;;;5.63;1.20;;;;;;;5.60;100.00;97943.28;4963448;28;20272;-63
2022/11/21 00:56:18;;;;;;;4.47;1.10;;;;;;;5.56;100.00;97951.44;4966927;28;20225;-64
2022/11/21 00:58:45;;;;;;;5.80;1.50;;;;;;;5.51;100.00;97935.47;4960511;28;20241;-61
2022/11/21 01:01:14;;;;;;;3.27;0.83;;;;;;;5.50;100.00;97941.63;4966279;28;20241;-64
2022/11/21 01:03:42;;;;;;;2.33;0.97;;;;;;;5.47;100.00;97938.34;4956563;28;20295;-61
2022/11/21 01:06:10;;;;;;;5.00;1.20;;;;;;;5.50;100.00;97942.44;4967226;28;20230;-63
2022/11/21 01:08:38;;;;;;;9.80;1.60;;;;;;;5.49;100.00;97943.41;4966339;28;20249;-63
2022/11/21 01:11:06;;;;;;;8.70;1.00;;;;;;;5.44;100.00;97950.75;4963306;28;20685;-63
2022/11/21 01:13:34;;;;;;;4.07;0.97;;;;;;;5.46;100.00;97959.19;4964209;28;20683;-63
2022/11/21 01:16:05;;;;;;;6.67;1.00;;;;;;;5.53;100.00;97962.88;4965613;28;20251;-63
2022/11/21 01:18:35;;;;;;;1.83;0.63;;;;;;;5.52;100.00;97950.06;4967498;28;20238;-63
2022/11/21 01:21:02;;;;;;;6.27;0.87;;;;;;;5.35;100.00;97952.34;4962340;28;20273;-62
2022/11/21 01:23:29;;;;;;;4.13;1.10;;;;;;;5.24;100.00;97948.13;4966470;28;20225;-63
2022/11/21 01:26:01;;;;;;;3.83;1.00;;;;;;;5.17;100.00;97944.44;4962239;28;20229;-64
2022/11/21 01:28:28;;;;;;;3.30;1.20;;;;;;;5.12;100.00;97968.13;4959638;28;20229;-63
2022/11/21 01:31:03;;;;;;;5.97;1.20;;;;;;;5.08;100.00;97961.59;4960189;28;20252;-63
2022/11/21 01:33:29;;;;;;;3.57;1.20;;;;;;;5.06;100.00;97978.19;4960048;28;20240;-63
2022/11/21 01:35:57;;;;;;;3.97;1.10;;;;;;;4.93;100.00;97965.50;4960992;28;20233;-63
2022/11/21 01:38:24;;;;;;;4.33;1.20;;;;;;;4.90;100.00;97976.09;4966155;28;20655;-63
2022/11/21 01:40:50;;;;;;;1.77;0.60;;;;;;;4.82;100.00;97976.72;4961832;28;20693;-63
2022/11/21 01:43:17;;;;;;;2.87;0.80;;;;;;;4.74;100.00;97969.63;4963903;28;20269;-63
2022/11/21 01:45:53;;;;;;;3.70;0.63;;;;;;;4.71;100.00;97951.78;4962690;28;20598;-63
2022/11/21 01:48:22;;;;;;;4.87;0.80;;;;;;;4.67;100.00;97943.50;4959219;28;20316;-63
2022/11/21 01:50:49;;;;;;;1.30;0.70;;;;;;;4.66;100.00;97928.94;4962701;28;20236;-64
2022/11/21 01:53:19;;;;;;;2.80;0.70;;;;;;;4.69;100.00;97936.44;4965618;28;20824;-63
2022/11/21 01:55:46;;;;;;;1.83;0.77;;;;;;;4.73;100.00;97921.47;4962742;28;20276;-63
2022/11/21 01:58:13;;;;;;;3.97;0.93;;;;;;;4.78;100.00;97926.22;4963620;28;20231;-63
2022/11/21 02:00:42;;;;;;;2.93;1.20;;;;;;;4.75;100.00;97931.69;4965486;28;20289;-63
2022/11/21 02:03:11;;;;;;;1.10;0.60;;;;;;;4.79;100.00;97926.09;4963368;28;20241;-64
2022/11/21 02:05:40;;;;;;;3.27;1.17;;;;;;;4.82;100.00;97918.09;4964052;28;20324;-63
2022/11/21 02:08:11;;;;;;;3.37;1.57;;;;;;;4.85;100.00;97928.16;4962689;28;20246;-63
2022/11/21 02:10:45;;;;;;;7.27;1.37;;;;;;;4.92;100.00;97932.81;4965200;28;20221;-63
2022/11/21 02:13:12;;;;;;;3.87;1.37;;;;;;;4.97;100.00;97933.25;4962837;28;20620;-63
2022/11/21 02:15:39;;;;;;;5.97;1.53;;;;;;;4.98;100.00;97920.16;4965584;28;20234;-63
2022/11/21 02:18:06;;;;;;;6.80;1.30;;;;;;;5.02;100.00;97906.00;4962130;28;20693;-63
2022/11/21 02:20:33;;;;;;;3.27;1.50;;;;;;;5.05;100.00;97915.28;4965211;28;20230;-63
2022/11/21 02:23:08;;;;;;;6.60;3.33;;;;;;;5.11;100.00;97911.34;4962313;28;20233;-63
2022/11/21 02:25:40;;;;;;;4.20;1.33;;;;;;;5.09;100.00;97916.66;4966868;28;20244;-63
2022/11/21 02:28:08;;;;;;;3.57;1.33;;;;;;;5.12;100.00;97910.38;4965414;28;20241;-63
2022/11/21 02:30:37;;;;;;;4.93;1.43;;;;;;;5.14;100.00;97909.31;4968678;28;20233;-63
2022/11/21 02:33:05;;;;;;;4.87;1.47;;;;;;;5.15;100.00;97899.78;4966152;28;20237;-63
2022/11/21 02:35:32;;;;;;;5.87;1.70;;;;;;;5.17;100.00;97898.69;4968063;28;20234;-63
2022/11/21 02:38:02;;;;;;;2.83;1.10;;;;;;;5.20;100.00;97901.97;4964063;28;20306;-63
2022/11/21 02:40:33;;;;;;;2.27;1.00;;;;;;;5.21;100.00;97888.09;4956069;28;20649;-63
2022/11/21 02:43:06;;;;;;;3.93;0.93;;;;;;;5.19;100.00;97883.03;4965607;28;20706;-63
2022/11/21 02:45:37;;;;;;;3.53;0.80;;;;;;;5.19;100.00;97908.91;4968404;28;20226;-63
2022/11/21 02:48:04;;;;;;;2.83;0.70;;;;;;;5.24;100.00;97893.78;4965169;28;20245;-63
2022/11/21 02:50:33;;;;;;;3.13;0.90;;;;;;;5.28;100.00;97904.72;4968786;28;20702;-63
2022/11/21 02:53:00;;;;;;;2.83;0.70;;;;;;;5.31;100.00;97907.84;4965593;28;20268;-63
2022/11/21 02:55:26;;;;;;;4.37;0.60;;;;;;;5.31;100.00;97899.22;4968407;28;20241;-63
2022/11/21 02:57:54;;;;;;;2.57;0.53;;;;;;;5.35;100.00;97900.59;4965256;28;20241;-63
2022/11/21 03:00:22;;;;;;;3.27;0.73;;;;;;;5.36;100.00;97902.22;4968360;28;20618;-63
2022/11/21 03:02:48;;;;;;;2.30;0.60;;;;;;;5.40;100.00;97898.44;4964269;28;20284;-63
2022/11/21 03:05:17;;;;;;;2.23;0.53;;;;;;;5.41;100.00;97884.53;4968556;28;20286;-63
2022/11/21 03:07:44;;;;;;;4.90;0.80;;;;;;;5.42;100.00;97895.72;4964492;28;20602;-63
2022/11/21 03:10:11;;;;;;;3.27;0.70;;;;;;;5.41;100.00;97894.88;4967368;28;20293;-63
2022/11/21 03:12:38;;;;;;;1.20;0.60;;;;;;;5.43;100.00;97885.22;4968239;28;20233;-63
2022/11/21 03:15:08;;;;;;;3.13;0.70;;;;;;;5.43;100.00;97892.97;4965449;28;20237;-63
2022/11/21 03:17:35;;;;;;;3.80;0.90;;;;;;;5.43;100.00;97885.22;4957614;28;20284;-63
2022/11/21 03:20:02;;;;;;;4.27;1.00;;;;;;;5.42;100.00;97870.63;4964878;28;20230;-63
2022/11/21 03:22:29;;;;;;;4.50;0.83;;;;;;;5.44;100.00;97879.09;4967214;28;20225;-63
2022/11/21 03:24:55;;;;;;;3.43;0.70;;;;;;;5.44;100.00;97879.09;4965256;28;20237;-63
2022/11/21 03:27:22;;;;;;;6.80;1.10;;;;;;;5.45;100.00;97885.09;4967305;28;20237;-65
2022/11/21 03:29:49;;;;;;;3.77;1.07;;;;;;;5.42;100.00;97891.34;4964714;28;20241;-63
2022/11/21 03:32:15;;;;;;;3.37;0.70;;;;;;;5.45;100.00;97885.09;4967913;28;20237;-63
2022/11/21 03:34:43;;;;;;;2.03;0.87;;;;;;;5.46;100.00;97886.72;4964960;28;20241;-63
2022/11/21 03:37:10;;;;;;;3.53;0.83;;;;;;;5.42;100.00;97881.00;4966885;28;20246;-63
2022/11/21 03:39:36;;;;;;;2.50;1.03;;;;;;;5.46;100.00;97884.13;4957993;28;20284;-64
2022/11/21 03:42:03;;;;;;;3.13;0.60;;;;;;;5.46;100.00;97884.13;4965324;28;20250;-63
2022/11/21 03:44:30;;;;;;;2.83;0.70;;;;;;;5.45;100.00;97885.88;4967418;28;20229;-63
2022/11/21 03:46:56;;;;;;;3.10;0.60;;;;;;;5.46;100.00;97878.97;4964378;28;20245;-63
2022/11/21 03:49:23;;;;;;;3.03;0.60;;;;;;;5.42;100.00;97870.63;4967559;28;20287;-63
2022/11/21 03:51:51;;;;;;;3.30;0.77;;;;;;;5.43;100.00;97871.47;4964625;28;20245;-63
2022/11/21 03:54:17;;;;;;;3.30;0.60;;;;;;;5.40;100.00;97869.16;4961067;28;20234;-63
2022/11/21 03:56:44;;;;;;;1.67;0.67;;;;;;;5.40;100.00;97874.31;4961470;28;20586;-63
2022/11/21 03:59:10;;;;;;;1.20;0.50;;;;;;;5.39;100.00;97870.09;4967061;28;20241;-63
2022/11/21 04:04:18;;;;;;;2.60;1.00;;;;;;;5.41;100.00;97874.19;5525236;23;20673;-65
2022/11/21 04:06:45;;;;;;;2.13;0.70;;;;;;;5.41;100.00;97874.19;4959321;28;20237;-65
2022/11/21 04:09:13;;;;;;;2.40;0.50;;;;;;;5.43;100.00;97882.63;4966660;28;20230;-66
2022/11/21 04:11:39;;;;;;;3.47;0.77;;;;;;;5.46;100.00;97889.31;4965903;28;20308;-66
2022/11/21 04:14:06;;;;;;;1.17;0.60;;;;;;;5.49;100.00;97854.56;4962911;28;20268;-66
2022/11/21 04:16:32;;;;;;;2.33;0.80;;;;;;;5.51;100.00;97886.31;4966673;28;20241;-66
2022/11/21 04:18:59;;;;;;;2.27;0.70;;;;;;;5.54;100.00;97867.91;4964165;28;20285;-66
2022/11/21 04:21:25;;;;;;;3.40;0.60;;;;;;;5.58;100.00;97874.44;4966661;28;20242;-66
2022/11/21 04:23:52;;;;;;;2.00;0.60;;;;;;;5.58;100.00;97887.38;4963371;28;20249;-66
2022/11/21 04:26:20;;;;;;;25.90;10.50;;;;;;;5.58;100.00;97879.63;4966860;28;20245;-66
2022/11/21 04:28:47;;;;;;;13.03;7.33;;;;;;;5.60;100.00;97869.94;4963761;28;20240;-66
2022/11/21 04:31:13;;;;;;;2.53;1.13;;;;;;;5.60;100.00;97863.00;5171621;23;20232;-63
2022/11/21 04:33:40;;;;;;;2.40;0.70;;;;;;;5.59;100.00;97866.56;4982290;28;20272;-64
2022/11/21 04:36:07;;;;;;;4.43;1.50;;;;;;;5.59;100.00;97863.97;4983204;28;20264;-64
2022/11/21 04:38:34;;;;;;;7.53;1.60;;;;;;;5.64;100.00;97867.91;4985783;28;20283;-64
2022/11/21 04:41:00;;;;;;;1.93;1.17;;;;;;;5.62;100.00;97870.63;4982178;28;20248;-64
2022/11/21 04:43:28;;;;;;;4.70;1.20;;;;;;;5.66;100.00;97876.38;4986613;28;20291;-63
2022/11/21 04:45:55;;;;;;;3.53;0.80;;;;;;;5.72;100.00;97875.81;4983737;28;20236;-63
2022/11/21 04:48:21;;;;;;;4.07;1.17;;;;;;;5.79;100.00;97886.44;4986902;28;20232;-64
2022/11/21 04:50:48;;;;;;;5.33;1.47;;;;;;;5.78;100.00;97877.03;4984683;28;20228;-64
2022/11/21 04:53:14;;;;;;;3.23;1.43;;;;;;;5.78;100.00;97889.97;4988456;28;20236;-64
2022/11/21 04:55:41;;;;;;;5.07;1.30;;;;;;;5.80;100.00;97881.13;4984399;28;20228;-63
2022/11/21 04:58:08;;;;;;;5.60;2.73;;;;;;;5.84;100.00;97871.28;4986552;28;20240;-64
2022/11/21 05:00:36;;;;;;;6.50;1.80;;;;;;;5.83;100.00;97867.88;4986029;28;20235;-64
2022/11/21 05:03:06;;;;;;;3.47;1.30;;;;;;;5.84;100.00;97868.69;4982364;28;20320;-64
2022/11/21 05:05:33;;;;;;;5.23;1.70;;;;;;;5.88;100.00;97867.47;4986559;28;20240;-64
2022/11/21 05:08:00;;;;;;;5.60;1.10;;;;;;;5.88;100.00;97865.66;4980728;28;20221;-63
2022/11/21 05:10:26;;;;;;;7.47;1.60;;;;;;;5.91;100.00;97872.38;4986503;28;20752;-63
2022/11/21 05:15:42;;;;;;;10.03;4.07;;;;;;;5.96;100.00;97874.53;4983755;28;20239;-63
2022/11/21 05:18:09;;;;;;;11.63;4.00;;;;;;;5.98;100.00;97885.56;4984994;28;20240;-63
2022/11/21 05:20:35;;;;;;;10.47;5.63;;;;;;;5.98;100.00;97891.56;4985906;28;20251;-64
2022/11/21 05:23:02;;;;;;;8.25;2.50;;;;;;;5.99;100.00;97875.06;4979210;28;20436;-63
2022/11/21 05:25:28;;;;;;;7.27;1.47;;;;;;;5.99;100.00;97882.84;5000861;28;20230;-68
2022/11/21 05:27:55;;;;;;;11.37;3.77;;;;;;;5.98;100.00;97891.56;4983468;28;20232;-63
2022/11/21 05:30:22;;;;;;;9.73;3.73;;;;;;;5.97;100.00;97889.09;4988785;28;20237;-64
2022/11/21 05:32:50;;;;;;;6.23;2.47;;;;;;;5.99;100.00;97900.16;4983163;28;20248;-64
2022/11/21 05:35:16;;;;;;;4.37;1.40;;;;;;;5.99;100.00;97889.78;4985190;28;20233;-64
2022/11/21 05:37:43;;;;;;;5.93;1.63;;;;;;;5.98;100.00;97896.75;4982914;28;20228;-64
2022/11/21 05:40:11;;;;;;;5.63;2.87;;;;;;;5.97;100.00;97900.31;4986571;28;20232;-64
2022/11/21 05:45:23;;;;;;;7.07;1.73;;;;;;;5.97;100.00;97907.25;4983685;28;20791;-63
2022/11/21 05:47:51;;;;;;;6.20;1.63;;;;;;;5.95;100.00;97901.38;4983708;28;20740;-64
2022/11/21 05:50:17;;;;;;;6.57;1.40;;;;;;;5.94;100.00;97897.16;4987050;28;20251;-64
2022/11/21 05:52:44;;;;;;;8.90;1.40;;;;;;;5.89;100.00;97893.22;4982597;28;20277;-64
2022/11/21 05:55:11;;;;;;;10.33;1.83;;;;;;;5.90;100.00;97889.66;4986322;28;20232;-64
2022/11/21 05:57:37;;;;;;;6.30;1.20;;;;;;;5.91;100.00;97893.88;4985380;28;20224;-64
2022/11/21 06:00:04;;;;;;;8.97;1.40;;;;;;;5.95;100.00;97884.09;4984030;28;20241;-64
2022/11/21 06:05:17;;;;;;;5.87;2.03;;;;;;;5.97;100.00;97882.16;4985601;28;20672;-64
2022/11/21 06:07:43;;;;;;;5.67;1.60;;;;;;;5.99;100.00;97882.84;4985740;28;20271;-64
2022/11/21 06:10:10;;;;;;;4.40;1.10;;;;;;;6.00;100.00;97874.16;4989018;28;20229;-64
2022/11/21 06:12:36;;;;;;;4.67;1.50;;;;;;;6.05;99.58;97881.47;4988398;28;20237;-64
2022/11/21 06:15:03;;;;;;;10.00;2.00;;;;;;;6.03;99.23;97873.03;4985250;28;20233;-63
2022/11/21 06:17:30;;;;;;;9.97;4.23;;;;;;;6.04;100.00;97885.88;4987345;28;20309;-63
2022/11/21 06:19:57;;;;;;;9.80;2.40;;;;;;;6.01;100.00;97880.97;4986732;28;20233;-64
2022/11/21 06:22:24;;;;;;;5.80;1.63;;;;;;;5.99;100.00;97887.19;4995412;28;20523;-63
2022/11/21 06:24:51;;;;;;;8.83;1.60;;;;;;;5.99;100.00;97889.78;4985690;28;20233;-64
2022/11/21 06:27:20;;;;;;;8.77;1.30;;;;;;;6.03;100.00;97889.41;4990559;28;20232;-64
2022/11/21 06:29:47;;;;;;;7.97;1.27;;;;;;;6.02;98.25;97890.38;4988326;28;20349;-63
2022/11/21 06:32:14;;;;;;;6.37;1.30;;;;;;;6.00;100.00;97878.47;4989886;28;20241;-64
2022/11/21 06:34:40;;;;;;;10.03;1.20;;;;;;;5.99;99.26;97888.03;4990273;28;20270;-64
2022/11/21 06:37:07;;;;;;;8.93;2.03;;;;;;;5.98;98.85;97882.97;4987352;28;20676;-64
2022/11/21 06:39:35;;;;;;;4.73;1.50;;;;;;;5.99;97.48;97888.03;4987613;28;20240;-64
2022/11/21 06:42:01;;;;;;;7.63;2.07;;;;;;;5.98;97.96;97891.56;4985680;28;21536;-63
2022/11/21 06:44:28;;;;;;;8.77;3.60;;;;;;;5.99;98.07;97894.97;4985922;28;20221;-64
2022/11/21 06:46:54;;;;;;;7.40;1.37;;;;;;;6.01;96.75;97893.91;4987309;28;20232;-64
2022/11/21 06:49:22;;;;;;;5.87;2.00;;;;;;;5.99;98.82;97884.59;4988432;28;20258;-63
2022/11/21 06:51:48;;;;;;;5.20;1.80;;;;;;;5.97;98.32;97878.75;4986000;28;20321;-63
2022/11/21 06:54:15;;;;;;;6.93;1.47;;;;;;;5.98;97.16;97885.56;4989171;28;20236;-64
2022/11/21 06:56:43;;;;;;;5.83;1.40;;;;;;;6.01;96.37;97878.38;4986679;28;20243;-63
2022/11/21 06:59:12;;;;;;;8.30;1.37;;;;;;;6.01;97.47;97875.78;4989127;28;20240;-63
2022/11/21 07:01:39;;;;;;;4.70;1.48;;;;;;;6.01;97.25;97870.59;4987263;28;20384;-63
2022/11/21 07:04:06;;;;;;;7.43;1.90;;;;;;;6.05;97.85;97882.31;4986287;28;20244;-63
2022/11/21 07:06:34;;;;;;;8.07;1.83;;;;;;;6.03;98.81;97886.00;4990108;28;20240;-63
2022/11/21 07:09:01;;;;;;;6.37;2.40;;;;;;;6.03;100.00;97883.41;4985550;28;20237;-63
2022/11/21 07:11:27;;;;;;;8.90;3.17;;;;;;;6.09;96.69;97882.84;4989733;28;20248;-63
2022/11/21 07:13:55;;;;;;;9.40;1.27;;;;;;;6.11;96.10;97880.94;4986049;28;20243;-63
2022/11/21 07:16:24;;;;;;;10.40;1.97;;;;;;;6.12;98.42;97894.72;4992224;28;20721;-63
2022/11/21 07:18:51;;;;;;;3.70;0.77;;;;;;;6.18;93.47;97891.56;4982240;28;20324;-62
2022/11/21 07:21:18;;;;;;;0.00;0.00;;;;;;;6.23;92.66;97889.38;4988912;28;20732;-62
2022/11/21 07:23:44;;;;;;;0.00;0.00;;;;;;;6.18;94.24;97881.19;4984922;28;20241;-62
2022/11/21 07:26:11;;;;;;;0.00;0.00;;;;;;;6.20;94.81;97871.50;4988818;28;21226;-61
2022/11/21 07:28:37;;;;;;;0.03;0.03;;;;;;;6.17;95.46;97872.59;4988030;28;20229;-62
2022/11/21 07:31:06;;;;;;;0.00;0.00;;;;;;;6.17;95.23;97861.44;4988243;28;20620;-62
2022/11/21 07:33:37;;;;;;;0.00;0.00;;;;;;;6.17;96.20;97861.44;4991447;28;20239;-62
2022/11/21 07:36:04;;;;;;;0.00;0.00;;;;;;;6.22;93.27;97872.19;4985619;28;20828;-62
2022/11/21 07:38:30;;;;;;;0.00;0.00;;;;;;;6.23;93.69;97860.84;4987489;28;20713;-61
2022/11/21 07:40:57;;;;;;;0.00;0.00;;;;;;;6.25;94.60;97850.34;4984731;28;20233;-62
2022/11/21 07:43:23;;;;;;;0.00;0.00;;;;;;;6.30;93.93;97867.09;4987995;28;20232;-62
2022/11/21 07:45:50;;;;;;;0.00;0.00;;;;;;;6.36;91.79;97857.94;4999551;28;20221;-61
2022/11/21 07:48:18;;;;;;;0.00;0.00;;;;;;;6.40;91.23;97848.06;4988448;28;20225;-62
2022/11/21 07:50:47;;;;;;;0.00;0.00;;;;;;;6.46;90.36;97850.09;4984957;28;20229;-61
2022/11/21 07:53:14;;;;;;;0.00;0.00;;;;;;;6.50;91.52;97848.84;5002027;28;20625;-61
2022/11/21 07:55:41;;;;;;;0.00;0.00;;;;;;;6.48;89.55;97837.81;4988196;28;20229;-62
2022/11/21 07:58:10;;;;;;;0.00;0.00;;;;;;;6.57;89.79;97855.09;4986996;28;20232;-62
2022/11/21 08:00:38;;;;;;;0.00;0.00;;;;;;;6.57;90.62;97855.09;4988391;28;20233;-62
2022/11/21 08:03:05;;;;;;;0.00;0.00;;;;;;;6.56;90.81;97839.69;4999630;28;20311;-61
2022/11/21 08:05:37;;;;;;;0.00;0.00;;;;;;;6.68;86.97;97835.13;4991161;28;20283;-61
2022/11/21 08:08:04;;;;;;;0.00;0.00;;;;;;;6.71;87.86;97840.84;4984650;28;20225;-62
2022/11/21 08:10:31;;;;;;;0.00;0.00;;;;;;;6.70;87.77;97838.38;4987401;28;20624;-62
2022/11/21 08:12:58;;;;;;;0.00;0.00;;;;;;;6.76;87.94;97833.44;4988645;28;20549;-61
2022/11/21 08:15:24;;;;;;;0.00;0.00;;;;;;;6.75;87.19;97828.38;4991964;28;20777;-61
2022/11/21 08:17:51;;;;;;;0.00;0.00;;;;;;;6.85;87.17;97828.34;4984040;28;20233;-62
2022/11/21 08:20:17;;;;;;;0.00;0.00;;;;;;;6.90;88.30;97831.28;4988698;28;20313;-61
2022/11/21 08:22:45;;;;;;;0.10;0.10;;;;;;;6.90;88.74;97831.28;4983854;28;20284;-62
2022/11/21 08:25:12;;;;;;;0.00;0.00;;;;;;;6.91;88.58;97831.16;4988028;28;20241;-62
2022/11/21 08:27:39;;;;;;;0.00;0.00;;;;;;;6.86;87.03;97833.38;4987354;28;20231;-62
2022/11/21 08:30:07;;;;;;;0.00;0.00;;;;;;;6.93;88.27;97826.63;4984392;28;20903;-62
2022/11/21 08:32:33;;;;;;;0.00;0.00;;;;;;;6.93;88.25;97823.22;4987177;28;20228;-62
2022/11/21 08:35:00;;;;;;;0.00;0.00;;;;;;;7.03;84.20;97825.75;4982328;28;20310;-62
2022/11/21 08:37:27;;;;;;;0.00;0.00;;;;;;;7.05;84.80;97818.63;4990486;28;20232;-62
2022/11/21 08:39:57;;;;;;;0.00;0.00;;;;;;;6.99;85.86;97817.44;4983599;28;20327;-61
2022/11/21 08:42:24;;;;;;;0.00;0.00;;;;;;;7.02;85.78;97814.53;4986439;28;20296;-62
2022/11/21 08:44:51;;;;;;;0.00;0.00;;;;;;;7.18;85.19;97811.28;4984601;28;20238;-62
2022/11/21 08:47:18;;;;;;;0.07;0.07;;;;;;;7.26;84.39;97804.53;4987916;28;20609;-62
2022/11/21 08:49:44;;;;;;;0.07;0.07;;;;;;;7.38;84.91;97804.16;4983638;28;20323;-62
2022/11/21 08:52:11;;;;;;;0.00;0.00;;;;;;;7.37;81.58;97796.53;4985723;28;20233;-61
2022/11/21 08:54:37;;;;;;;0.00;0.00;;;;;;;7.38;81.25;97792.97;4986034;28;20233;-62
2022/11/21 08:57:05;;;;;;;0.00;0.00;;;;;;;7.36;80.94;97797.50;4982617;28;20233;-61
2022/11/21 08:59:32;;;;;;;0.00;0.00;;;;;;;7.36;81.53;97800.09;4986177;28;20284;-62
2022/11/21 09:01:58;;;;;;;0.00;0.00;;;;;;;7.20;82.43;97795.56;4982409;28;20229;-61
2022/11/21 09:04:25;;;;;;;0.00;0.00;;;;;;;7.14;82.29;97791.78;4985121;28;20709;-62
2022/11/21 09:06:51;;;;;;;0.10;0.10;;;;;;;7.27;82.73;97800.97;4984222;28;20228;-61
2022/11/21 09:09:18;;;;;;;0.00;0.00;;;;;;;7.36;81.55;97802.69;4986528;28;20240;-62
2022/11/21 09:11:45;;;;;;;0.00;0.00;;;;;;;7.54;81.21;97798.25;4983734;28;20608;-61
2022/11/21 09:19:40;;;;;;;0.00;0.00;;;;;;;7.49;81.06;97774.50;4987543;28;20705;-61
2022/11/21 09:22:07;;;;;;;0.00;0.00;;;;;;;7.40;81.47;97778.03;4983884;28;20249;-61
2022/11/21 09:24:33;;;;;;;0.00;0.00;;;;;;;7.42;80.23;97765.69;4986990;28;20245;-61
2022/11/21 09:27:00;;;;;;;0.00;0.00;;;;;;;7.26;81.85;97756.03;4984001;28;20287;-62
2022/11/21 09:29:28;;;;;;;0.00;0.00;;;;;;;7.23;82.10;97754.56;4988673;28;20680;-61
2022/11/21 09:31:54;;;;;;;0.00;0.00;;;;;;;7.23;84.10;97749.38;4983221;28;20282;-62
2022/11/21 09:34:21;;;;;;;0.00;0.00;;;;;;;7.18;84.72;97759.38;4985804;28;20233;-62
2022/11/21 09:36:48;;;;;;;0.00;0.00;;;;;;;7.25;84.79;97754.38;4988051;28;20248;-62
2022/11/21 09:39:14;;;;;;;0.00;0.00;;;;;;;7.28;84.72;97748.91;4990149;28;20629;-62
2022/11/21 09:41:53;;;;;;;0.00;0.00;;;;;;;7.31;84.11;97740.81;4988838;28;20239;-61
2022/11/21 09:44:44;;;;;;;0.00;0.00;;;;;;;7.35;81.61;97751.72;4984635;28;20241;-61
2022/11/21 09:47:22;;;;;;;0.00;0.00;;;;;;;7.40;81.51;97770.25;4986775;28;20236;-62
2022/11/21 09:49:54;;;;;;;0.00;0.00;;;;;;;7.36;80.86;97754.16;4986517;28;20232;-61
2022/11/21 09:52:24;;;;;;;0.00;0.00;;;;;;;7.51;80.05;97761.38;4989081;28;20244;-62
2022/11/21 09:54:57;;;;;;;0.00;0.00;;;;;;;7.48;82.05;97751.31;4985192;28;20235;-60
2022/11/21 09:57:25;;;;;;;0.00;0.00;;;;;;;7.51;80.54;97738.03;4989201;28;20283;-62
2022/11/21 09:59:54;;;;;;;0.00;0.00;;;;;;;7.64;81.33;97728.03;4985442;28;20233;-60
2022/11/21 10:02:22;;;;;;;0.00;0.00;;;;;;;7.57;81.32;97724.41;4958621;28;20707;-60
2022/11/21 10:04:51;;;;;;;0.00;0.00;;;;;;;7.53;82.02;97712.72;4968269;28;20229;-60
2022/11/21 10:07:24;;;;;;;0.00;0.00;;;;;;;7.54;81.67;97709.94;4977315;28;20237;-60
2022/11/21 10:10:23;;;;;;;0.00;0.00;;;;;;;7.43;83.36;97706.81;4973879;28;20256;-60
2022/11/21 10:13:05;;;;;;;0.10;0.10;;;;;;;7.48;82.53;97713.16;4975542;28;20268;-61
2022/11/21 10:15:43;;;;;;;0.10;0.10;;;;;;;7.57;79.17;97700.22;4977956;28;20226;-61
2022/11/21 10:18:33;;;;;;;0.00;0.00;;;;;;;7.48;81.27;97699.38;4977399;28;20233;-60
2022/11/21 10:21:07;;;;;;;0.00;0.00;;;;;;;7.54;81.76;97699.56;4978333;28;20234;-60
2022/11/21 10:23:48;;;;;;;0.00;0.00;;;;;;;7.62;79.24;97687.59;4979137;28;20570;-61
2022/11/21 10:26:20;;;;;;;0.00;0.00;;;;;;;8.08;78.34;97687.28;4976614;28;20223;-61
2022/11/21 10:28:52;;;;;;;0.07;0.07;;;;;;;8.49;75.40;97678.75;4977224;28;20252;-61
2022/11/21 10:31:21;;;;;;;0.00;0.00;;;;;;;8.83;75.44;97677.81;4980642;28;20236;-61
2022/11/21 10:33:50;;;;;;;0.00;0.00;;;;;;;8.98;74.74;97664.97;4976710;28;20725;-61
2022/11/21 10:36:27;;;;;;;0.00;0.00;;;;;;;8.99;75.02;97658.78;4979627;28;20246;-61
2022/11/21 10:38:59;;;;;;;0.00;0.00;;;;;;;8.76;75.04;97656.03;4973181;28;20736;-61
2022/11/21 10:41:39;;;;;;;0.00;0.00;;;;;;;8.63;74.25;97653.94;4979911;28;20764;-61
2022/11/21 10:47:01;;;;;;;0.00;0.00;;;;;;;9.39;71.83;97638.03;4979720;28;20236;-61
2022/11/21 10:49:32;;;;;;;0.00;0.00;;;;;;;9.54;70.91;97618.09;4979630;28;20227;-61
2022/11/21 10:52:05;;;;;;;0.00;0.00;;;;;;;9.70;70.95;97609.41;4976121;28;20244;-60
2022/11/21 10:54:32;;;;;;;0.00;0.00;;;;;;;9.42;69.56;97616.88;4976295;28;20249;-61
2022/11/21 10:57:01;;;;;;;0.00;0.00;;;;;;;9.30;70.86;97608.59;4975268;28;20224;-61
2022/11/21 10:59:30;;;;;;;0.00;0.00;;;;;;;9.27;72.29;97601.09;4977451;28;20708;-61
2022/11/21 11:02:00;;;;;;;0.00;0.00;;;;;;;9.13;71.83;97595.63;4976997;28;20612;-61
2022/11/21 11:04:28;;;;;;;0.00;0.00;;;;;;;9.06;71.88;97592.06;4977376;28;20229;-62
2022/11/21 11:06:55;;;;;;;0.00;0.00;;;;;;;8.94;72.63;97588.19;4976014;28;20288;-61
2022/11/21 11:09:25;;;;;;;0.00;0.00;;;;;;;9.03;71.20;97583.78;4979328;28;20228;-62
2022/11/21 11:11:51;;;;;;;0.00;0.00;;;;;;;8.94;70.30;97583.78;4975822;28;20256;-62
2022/11/21 11:14:29;;;;;;;0.00;0.00;;;;;;;8.82;72.97;97574.72;4979445;28;20247;-62
2022/11/21 11:16:56;;;;;;;0.00;0.00;;;;;;;8.73;72.69;97576.53;4974366;28;20255;-62
2022/11/21 11:19:27;;;;;;;0.00;0.00;;;;;;;8.93;71.38;97569.16;4979439;28;20242;-62
2022/11/21 11:21:55;;;;;;;0.00;0.00;;;;;;;8.88;71.56;97561.03;4976410;28;20240;-62
2022/11/21 11:24:25;;;;;;;0.00;0.00;;;;;;;8.84;72.21;97562.34;4979733;28;20244;-62
2022/11/21 11:26:58;;;;;;;0.00;0.00;;;;;;;8.80;73.12;97567.06;4976188;28;20249;-62
2022/11/21 11:29:25;;;;;;;0.00;0.00;;;;;;;8.97;70.88;97554.84;4979887;28;20779;-62
2022/11/21 11:31:56;;;;;;;0.00;0.00;;;;;;;8.78;70.43;97543.00;4975686;28;20229;-62
2022/11/21 11:34:27;;;;;;;0.00;0.00;;;;;;;8.93;69.18;97531.91;4989475;28;20241;-62
2022/11/21 11:37:08;;;;;;;0.00;0.00;;;;;;;8.89;71.68;97531.44;4975282;28;20870;-62
2022/11/21 11:39:40;;;;;;;0.00;0.00;;;;;;;8.78;70.36;97536.97;4977794;28;20229;-62
2022/11/21 11:48:16;;;;;;;0.00;0.00;;;;;;;9.35;71.67;97514.34;4972398;28;20316;-62
2022/11/21 11:50:48;;;;;;;0.00;0.00;;;;;;;9.23;67.79;97513.91;4973725;28;20236;-62
2022/11/21 11:53:19;;;;;;;0.00;0.00;;;;;;;9.32;68.85;97512.09;4980000;28;20648;-62
2022/11/21 11:55:51;;;;;;;0.00;0.00;;;;;;;9.35;68.21;97507.34;4975714;28;20252;-62
2022/11/21 11:58:24;;;;;;;0.00;0.00;;;;;;;9.26;69.50;97501.38;4978902;28;20725;-62
2022/11/21 12:01:00;;;;;;;0.00;0.00;;;;;;;9.41;67.10;97480.59;4977424;28;20716;-62
2022/11/21 12:03:39;;;;;;;0.00;0.00;;;;;;;9.16;68.88;97464.31;4978392;28;20763;-62
2022/11/21 12:06:15;;;;;;;0.00;0.00;;;;;;;9.25;67.61;97463.28;4973308;28;20228;-62
2022/11/21 12:08:48;;;;;;;0.00;0.00;;;;;;;9.18;69.68;97464.94;4975134;28;20237;-63
2022/11/21 12:17:37;;;;;;;0.00;0.00;;;;;;;9.57;69.47;97447.63;4974322;28;20232;-62